createdAt,value
2022-11-26T00:00:55.259Z,4.90
2022-11-26T00:03:23.235Z,4.90
2022-11-26T00:05:54.491Z,4.90
2022-11-26T00:08:28.110Z,4.90
2022-11-26T00:10:55.241Z,4.90
2022-11-26T00:13:27.174Z,4.90
2022-11-26T00:15:54.473Z,4.80
2022-11-26T00:18:23.543Z,4.80
2022-11-26T00:20:56.163Z,4.80
2022-11-26T00:23:26.200Z,4.80
2022-11-26T00:25:59.678Z,4.70
2022-11-26T00:28:32.602Z,4.70
2022-11-26T00:31:19.980Z,4.70
2022-11-26T00:33:47.170Z,4.70
2022-11-26T00:36:22.028Z,4.70
2022-11-26T00:38:53.789Z,4.70
2022-11-26T00:41:23.618Z,4.70
2022-11-26T00:43:50.509Z,4.70
2022-11-26T00:46:20.397Z,4.70
2022-11-26T00:48:47.415Z,4.70
2022-11-26T00:51:18.275Z,4.70
2022-11-26T00:53:46.145Z,4.70
2022-11-26T00:56:19.007Z,4.70
2022-11-26T00:58:48.045Z,4.70
2022-11-26T01:01:19.217Z,4.60
2022-11-26T01:03:46.277Z,4.60
2022-11-26T01:06:28.632Z,4.60
2022-11-26T01:08:55.462Z,4.60
2022-11-26T01:11:24.660Z,4.60
2022-11-26T01:13:54.289Z,4.60
2022-11-26T01:16:27.888Z,4.60
2022-11-26T01:18:57.648Z,4.60
2022-11-26T01:21:31.112Z,4.60
2022-11-26T01:23:57.887Z,4.60
2022-11-26T01:26:27.989Z,4.60
2022-11-26T01:28:55.692Z,4.70
2022-11-26T01:31:25.200Z,4.70
2022-11-26T01:33:52.131Z,4.70
2022-11-26T01:36:22.426Z,4.70
2022-11-26T01:38:49.348Z,4.70
2022-11-26T01:41:54.490Z,4.70
2022-11-26T01:44:30.976Z,4.70
2022-11-26T01:46:59.152Z,4.80
2022-11-26T01:49:29.055Z,4.70
2022-11-26T01:51:55.745Z,4.70
2022-11-26T01:54:22.821Z,4.80
2022-11-26T01:56:56.001Z,4.80
2022-11-26T01:59:28.139Z,4.80
2022-11-26T02:01:58.401Z,4.80
2022-11-26T02:04:35.171Z,4.80
2022-11-26T02:07:02.149Z,4.90
2022-11-26T02:09:30.157Z,4.80
2022-11-26T02:11:57.253Z,4.80
2022-11-26T02:14:28.489Z,4.90
2022-11-26T02:17:19.315Z,4.80
2022-11-26T02:19:54.575Z,4.90
2022-11-26T02:22:44.185Z,4.90
2022-11-26T02:25:35.858Z,4.90
2022-11-26T02:28:11.429Z,4.90
2022-11-26T02:30:51.462Z,4.90
2022-11-26T02:33:45.439Z,4.90
2022-11-26T02:36:33.641Z,4.90
2022-11-26T02:39:15.270Z,4.90
2022-11-26T02:41:53.277Z,4.90
2022-11-26T02:44:33.994Z,4.90
2022-11-26T02:47:08.113Z,4.80
2022-11-26T02:49:37.948Z,4.90
2022-11-26T02:52:06.358Z,4.90
2022-11-26T02:54:36.273Z,4.90
2022-11-26T02:57:06.524Z,4.90
2022-11-26T02:59:34.207Z,4.90
2022-11-26T03:02:07.357Z,4.90
2022-11-26T03:04:38.865Z,4.90
2022-11-26T03:07:07.261Z,5.00
2022-11-26T03:10:02.233Z,5.00
2022-11-26T03:12:29.806Z,5.00
2022-11-26T03:14:56.576Z,5.00
2022-11-26T03:17:23.351Z,5.00
2022-11-26T03:19:50.614Z,5.00
2022-11-26T03:22:17.718Z,5.00
2022-11-26T03:24:44.499Z,5.00
2022-11-26T03:27:11.334Z,5.00
2022-11-26T03:29:38.090Z,5.00
2022-11-26T03:32:05.095Z,5.00
2022-11-26T03:34:31.968Z,5.00
2022-11-26T03:36:59.729Z,5.00
2022-11-26T03:39:26.470Z,5.00
2022-11-26T03:41:53.200Z,5.00
2022-11-26T03:44:19.982Z,5.00
2022-11-26T03:46:46.729Z,5.00
2022-11-26T03:49:13.439Z,5.00
2022-11-26T03:51:40.197Z,5.00
2022-11-26T03:54:07.164Z,5.00
2022-11-26T03:56:33.950Z,5.00
2022-11-26T03:59:00.702Z,5.00
2022-11-26T04:01:27.519Z,5.00
2022-11-26T04:03:54.284Z,5.00
2022-11-26T04:06:21.070Z,5.00
2022-11-26T04:08:47.814Z,5.10
2022-11-26T04:11:15.482Z,5.10
2022-11-26T04:13:42.418Z,5.10
2022-11-26T04:16:09.885Z,5.10
2022-11-26T04:18:36.802Z,5.00
2022-11-26T04:21:06.614Z,5.00
2022-11-26T04:23:33.686Z,5.00
2022-11-26T04:26:00.465Z,5.00
2022-11-26T04:28:27.509Z,5.00
2022-11-26T04:30:54.255Z,5.10
2022-11-26T04:33:21.435Z,5.10
2022-11-26T04:35:49.569Z,5.10
2022-11-26T04:38:16.406Z,5.10
2022-11-26T04:40:43.176Z,5.10
2022-11-26T04:43:09.998Z,5.10
2022-11-26T04:45:36.796Z,5.10
2022-11-26T04:48:03.635Z,5.10
2022-11-26T04:50:31.637Z,5.10
2022-11-26T04:52:58.411Z,5.10
2022-11-26T04:55:25.260Z,5.10
2022-11-26T04:57:51.987Z,5.10
2022-11-26T05:00:19.659Z,5.10
2022-11-26T05:02:46.431Z,5.10
2022-11-26T05:05:13.420Z,5.10
2022-11-26T05:07:40.682Z,5.10
2022-11-26T05:10:08.804Z,5.10
2022-11-26T05:12:36.482Z,5.10
2022-11-26T05:15:04.528Z,5.10
2022-11-26T05:17:32.046Z,5.10
2022-11-26T05:19:58.796Z,5.10
2022-11-26T05:22:25.628Z,5.10
2022-11-26T05:24:52.396Z,5.10
2022-11-26T05:27:19.112Z,5.10
2022-11-26T05:29:45.861Z,5.10
2022-11-26T05:32:12.643Z,5.00
2022-11-26T05:34:39.555Z,5.10
2022-11-26T05:37:06.417Z,5.10
2022-11-26T05:39:33.343Z,5.00
2022-11-26T05:42:03.612Z,5.00
2022-11-26T05:44:34.077Z,5.00
2022-11-26T05:47:00.765Z,5.10
2022-11-26T05:49:27.650Z,5.00
2022-11-26T05:51:54.435Z,5.00
2022-11-26T05:54:22.318Z,5.00
2022-11-26T05:56:49.030Z,5.00
2022-11-26T05:59:15.772Z,5.00
2022-11-26T06:01:42.536Z,5.00
2022-11-26T06:04:09.288Z,5.00
2022-11-26T06:06:36.144Z,5.00
2022-11-26T06:09:03.911Z,5.00
2022-11-26T06:11:31.665Z,5.00
2022-11-26T06:13:58.390Z,5.00
2022-11-26T06:16:25.126Z,5.00
2022-11-26T06:18:51.968Z,5.00
2022-11-26T06:21:19.052Z,5.00
2022-11-26T06:23:54.312Z,5.00
2022-11-26T06:26:24.917Z,5.00
2022-11-26T06:28:51.627Z,5.00
2022-11-26T06:31:18.463Z,5.00
2022-11-26T06:33:45.308Z,5.00
2022-11-26T06:36:12.082Z,5.00
2022-11-26T06:38:38.871Z,5.00
2022-11-26T06:41:07.898Z,5.00
2022-11-26T06:43:35.688Z,5.00
2022-11-26T06:46:04.593Z,5.00
2022-11-26T06:48:31.910Z,5.00
2022-11-26T06:51:12.229Z,5.00
2022-11-26T06:53:39.742Z,5.10
2022-11-26T06:56:14.831Z,5.10
2022-11-26T06:58:46.255Z,5.10
2022-11-26T07:01:19.505Z,5.10
2022-11-26T07:03:47.085Z,5.10
2022-11-26T07:06:29.310Z,5.00
2022-11-26T07:08:57.811Z,5.10
2022-11-26T07:11:25.768Z,5.10
2022-11-26T07:13:52.922Z,5.10
2022-11-26T07:16:20.361Z,5.10
2022-11-26T07:18:55.217Z,5.10
2022-11-26T07:21:25.420Z,5.10
2022-11-26T07:23:53.206Z,5.10
2022-11-26T07:26:21.693Z,5.10
2022-11-26T07:28:49.002Z,5.10
2022-11-26T07:31:18.922Z,5.20
2022-11-26T07:33:47.002Z,5.20
2022-11-26T07:36:22.610Z,5.20
2022-11-26T07:38:49.547Z,5.20
2022-11-26T07:41:18.979Z,5.20
2022-11-26T07:43:46.625Z,5.30
2022-11-26T07:46:16.563Z,5.30
2022-11-26T07:48:44.305Z,5.30
2022-11-26T07:51:29.468Z,5.30
2022-11-26T07:53:58.262Z,5.30
2022-11-26T07:56:25.399Z,5.30
2022-11-26T07:58:52.169Z,5.30
2022-11-26T08:01:21.825Z,5.30
2022-11-26T08:03:50.458Z,5.40
2022-11-26T08:06:25.132Z,5.40
2022-11-26T08:08:52.075Z,5.40
2022-11-26T08:11:24.318Z,5.50
2022-11-26T08:13:56.912Z,5.50
2022-11-26T08:16:23.900Z,5.50
2022-11-26T08:18:55.201Z,5.50
2022-11-26T08:21:22.545Z,5.60
2022-11-26T08:23:49.466Z,5.60
2022-11-26T08:26:36.155Z,5.60
2022-11-26T08:29:03.892Z,5.60
2022-11-26T08:31:31.247Z,5.60
2022-11-26T08:33:59.355Z,5.70
2022-11-26T08:36:30.410Z,5.70
2022-11-26T08:38:58.204Z,5.70
2022-11-26T08:41:25.068Z,5.70
2022-11-26T08:44:06.100Z,5.70
2022-11-26T08:46:39.633Z,5.70
2022-11-26T08:49:08.415Z,5.80
2022-11-26T08:51:35.320Z,5.80
2022-11-26T08:54:02.662Z,5.90
2022-11-26T08:56:29.732Z,5.90
2022-11-26T08:58:56.703Z,6.00
2022-11-26T09:01:26.420Z,6.00
2022-11-26T09:03:55.840Z,6.00
2022-11-26T09:06:24.695Z,6.10
2022-11-26T09:09:10.383Z,6.10
2022-11-26T09:11:40.539Z,6.10
2022-11-26T09:14:07.624Z,6.10
2022-11-26T09:16:34.590Z,6.10
2022-11-26T09:19:03.084Z,6.20
2022-11-26T09:21:30.046Z,6.20
2022-11-26T09:23:56.819Z,6.20
2022-11-26T09:26:25.279Z,6.20
2022-11-26T09:28:52.471Z,6.20
2022-11-26T09:31:20.904Z,6.20
2022-11-26T09:33:47.989Z,6.20
2022-11-26T09:36:15.775Z,6.10
2022-11-26T09:38:43.229Z,6.10
2022-11-26T09:41:41.130Z,6.10
2022-11-26T09:44:13.833Z,6.10
2022-11-26T09:47:10.381Z,6.10
2022-11-26T09:49:59.479Z,6.10
2022-11-26T09:52:33.696Z,6.20
2022-11-26T09:55:38.794Z,6.20
2022-11-26T09:58:29.429Z,6.30
2022-11-26T10:00:59.277Z,6.40
2022-11-26T10:03:36.721Z,6.50
2022-11-26T10:06:27.723Z,6.50
2022-11-26T10:09:48.889Z,6.50
2022-11-26T10:13:11.214Z,6.60
2022-11-26T10:15:43.840Z,6.70
2022-11-26T10:18:47.649Z,6.80
2022-11-26T10:21:27.311Z,7.00
2022-11-26T10:24:10.115Z,7.10
2022-11-26T10:26:39.604Z,7.20
2022-11-26T10:29:26.542Z,7.30
2022-11-26T10:32:10.516Z,7.30
2022-11-26T10:34:51.314Z,7.30
2022-11-26T10:37:19.628Z,7.30
2022-11-26T10:39:46.538Z,7.40
2022-11-26T10:42:22.233Z,7.40
2022-11-26T10:44:53.904Z,7.40
2022-11-26T10:47:28.046Z,7.40
2022-11-26T10:50:32.211Z,7.40
2022-11-26T10:53:05.491Z,7.50
2022-11-26T10:55:41.372Z,8.40
2022-11-26T10:58:17.013Z,9.40
2022-11-26T11:00:49.852Z,10.40
2022-11-26T11:03:44.555Z,11.10
2022-11-26T11:06:19.645Z,11.80
2022-11-26T11:08:48.032Z,12.80
2022-11-26T11:11:29.966Z,13.50
2022-11-26T11:13:57.926Z,14.00
2022-11-26T11:16:46.173Z,14.50
2022-11-26T11:19:31.955Z,15.20
2022-11-26T11:21:58.808Z,15.50
2022-11-26T11:24:28.288Z,15.50
2022-11-26T11:27:00.278Z,15.40
2022-11-26T11:29:33.995Z,15.10
2022-11-26T11:32:04.631Z,15.00
2022-11-26T11:34:39.843Z,15.20
2022-11-26T11:37:17.126Z,15.20
2022-11-26T11:39:44.748Z,15.10
2022-11-26T11:42:21.648Z,15.00
2022-11-26T11:44:51.025Z,14.60
2022-11-26T11:47:33.920Z,14.20
2022-11-26T11:50:23.375Z,13.90
2022-11-26T11:53:06.343Z,13.60
2022-11-26T11:55:48.150Z,13.40
2022-11-26T11:58:43.391Z,13.00
2022-11-26T12:01:36.204Z,12.50
2022-11-26T12:04:40.401Z,12.20
2022-11-26T12:07:34.466Z,11.90
2022-11-26T12:10:19.409Z,11.60
2022-11-26T12:12:52.844Z,11.40
2022-11-26T12:15:36.062Z,11.20
2022-11-26T12:18:41.761Z,10.80
2022-11-26T12:21:12.757Z,10.60
2022-11-26T12:23:53.046Z,10.30
2022-11-26T12:26:28.184Z,10.20
2022-11-26T12:29:03.365Z,10.00
2022-11-26T12:31:37.927Z,9.90
2022-11-26T12:34:33.004Z,9.80
2022-11-26T12:37:19.324Z,9.60
2022-11-26T12:40:03.429Z,9.50
2022-11-26T12:42:51.304Z,9.40
2022-11-26T12:45:26.519Z,9.30
2022-11-26T12:48:03.124Z,9.30
2022-11-26T12:50:39.518Z,9.20
2022-11-26T12:53:09.282Z,9.20
2022-11-26T12:55:45.844Z,9.10
2022-11-26T12:58:12.554Z,9.10
2022-11-26T13:00:39.559Z,9.00
2022-11-26T13:03:07.049Z,9.00
2022-11-26T13:05:55.923Z,9.00
2022-11-26T13:08:53.557Z,8.90
2022-11-26T13:11:31.799Z,8.90
2022-11-26T13:14:09.928Z,8.80
2022-11-26T13:16:43.109Z,8.70
2022-11-26T13:19:24.146Z,8.70
2022-11-26T13:22:30.636Z,8.60
2022-11-26T13:25:03.360Z,8.50
2022-11-26T13:27:49.276Z,8.40
2022-11-26T13:30:31.944Z,8.30
2022-11-26T13:33:23.249Z,8.20
2022-11-26T13:36:27.258Z,8.20
2022-11-26T13:39:04.131Z,8.30
2022-11-26T13:41:48.771Z,8.50
2022-11-26T13:44:34.412Z,8.70
2022-11-26T13:47:08.662Z,9.10
2022-11-26T13:49:44.040Z,9.50
2022-11-26T13:52:29.335Z,9.90
2022-11-26T13:55:07.312Z,10.30
2022-11-26T13:57:41.016Z,10.70
2022-11-26T14:00:09.221Z,11.00
2022-11-26T14:02:44.162Z,11.30
2022-11-26T14:05:13.879Z,11.50
2022-11-26T14:07:41.605Z,11.30
2022-11-26T14:10:31.591Z,11.20
2022-11-26T14:13:04.704Z,11.00
2022-11-26T14:15:40.730Z,10.80
2022-11-26T14:18:42.700Z,10.50
2022-11-26T14:21:21.619Z,10.40
2022-11-26T14:23:50.899Z,10.30
2022-11-26T14:26:37.665Z,10.30
2022-11-26T14:29:11.937Z,10.40
2022-11-26T14:31:54.478Z,10.30
2022-11-26T14:34:42.407Z,10.30
2022-11-26T14:37:14.600Z,10.30
2022-11-26T14:39:41.684Z,10.20
2022-11-26T14:42:19.857Z,10.10
2022-11-26T14:44:46.790Z,10.00
2022-11-26T14:47:20.499Z,9.80
2022-11-26T14:50:00.958Z,9.70
2022-11-26T14:52:34.997Z,9.50
2022-11-26T14:55:15.625Z,9.30
2022-11-26T14:57:43.499Z,9.10
2022-11-26T15:00:16.613Z,8.90
2022-11-26T15:02:48.539Z,8.70
2022-11-26T15:05:30.876Z,8.50
2022-11-26T15:08:01.756Z,8.30
2022-11-26T15:10:52.790Z,8.10
2022-11-26T15:13:33.866Z,7.90
2022-11-26T15:16:03.811Z,7.70
2022-11-26T15:18:34.321Z,7.40
2022-11-26T15:21:04.000Z,7.30
2022-11-26T15:23:39.282Z,7.10
2022-11-26T15:26:06.430Z,6.90
2022-11-26T15:28:38.697Z,6.80
2022-11-26T15:31:10.019Z,6.60
2022-11-26T15:33:39.223Z,6.40
2022-11-26T15:36:07.701Z,6.20
2022-11-26T15:38:38.082Z,6.10
2022-11-26T15:41:08.399Z,5.90
2022-11-26T15:43:45.361Z,5.70
2022-11-26T15:46:34.571Z,5.50
2022-11-26T15:49:07.640Z,5.40
2022-11-26T15:51:44.222Z,5.20
2022-11-26T15:54:49.510Z,5.10
2022-11-26T15:57:36.753Z,5.00
2022-11-26T16:00:09.652Z,4.90
2022-11-26T16:02:39.065Z,4.80
2022-11-26T16:05:40.052Z,4.70
2022-11-26T16:08:30.391Z,4.60
2022-11-26T16:11:21.466Z,4.50
2022-11-26T16:13:48.286Z,4.40
2022-11-26T16:16:21.575Z,4.30
2022-11-26T16:18:59.753Z,4.10
2022-11-26T16:21:29.507Z,4.00
2022-11-26T16:23:59.192Z,3.90
2022-11-26T16:26:26.822Z,3.80
2022-11-26T16:28:53.943Z,3.70
2022-11-26T16:31:21.588Z,3.60
2022-11-26T16:33:49.455Z,3.50
2022-11-26T16:36:20.723Z,3.40
2022-11-26T16:38:48.183Z,3.30
2022-11-26T16:41:16.482Z,3.20
2022-11-26T16:43:43.226Z,3.10
2022-11-26T16:46:18.401Z,3.00
2022-11-26T16:48:46.444Z,3.00
2022-11-26T16:51:13.591Z,3.00
2022-11-26T16:53:40.734Z,2.90
2022-11-26T16:56:22.432Z,2.90
2022-11-26T16:58:50.957Z,2.80
2022-11-26T17:01:17.760Z,2.80
2022-11-26T17:03:44.686Z,2.70
2022-11-26T17:06:15.492Z,2.70
2022-11-26T17:11:29.273Z,2.60
2022-11-26T17:13:56.128Z,2.60
2022-11-26T17:16:23.646Z,2.60
2022-11-26T17:18:50.668Z,2.50
2022-11-26T17:21:17.423Z,2.50
2022-11-26T17:23:44.218Z,2.40
2022-11-26T17:26:29.143Z,2.40
2022-11-26T17:28:55.868Z,2.40
2022-11-26T17:31:23.684Z,2.40
2022-11-26T17:33:51.099Z,2.30
2022-11-26T17:36:20.565Z,2.20
2022-11-26T17:38:47.655Z,2.20
2022-11-26T17:41:14.685Z,2.20
2022-11-26T17:43:42.187Z,2.20
2022-11-26T17:46:18.127Z,2.20
2022-11-26T17:48:45.453Z,2.20
2022-11-26T17:51:14.393Z,2.20
2022-11-26T17:53:42.212Z,2.10
2022-11-26T17:56:20.181Z,2.00
2022-11-26T17:58:47.586Z,2.10
2022-11-26T18:01:15.749Z,2.00
2022-11-26T18:03:43.778Z,2.10
2022-11-26T18:06:18.731Z,2.10
2022-11-26T18:08:45.780Z,2.10
2022-11-26T18:11:15.442Z,2.10
2022-11-26T18:13:42.634Z,2.10
2022-11-26T18:16:09.561Z,2.10
2022-11-26T18:18:36.289Z,2.00
2022-11-26T18:21:03.082Z,2.00
2022-11-26T18:23:29.827Z,1.90
2022-11-26T18:25:56.663Z,1.90
2022-11-26T18:28:25.438Z,1.80
2022-11-26T18:30:57.307Z,1.80
2022-11-26T18:33:24.135Z,1.70
2022-11-26T18:35:50.982Z,1.70
2022-11-26T18:38:17.689Z,1.70
2022-11-26T18:40:44.410Z,1.70
2022-11-26T18:43:11.128Z,1.60
2022-11-26T18:45:41.243Z,1.60
2022-11-26T18:48:08.013Z,1.60
2022-11-26T18:50:34.954Z,1.60
2022-11-26T18:53:01.672Z,1.50
2022-11-26T18:55:28.688Z,1.50
2022-11-26T18:57:55.432Z,1.40
2022-11-26T19:00:22.401Z,1.40
2022-11-26T19:02:49.474Z,1.30
2022-11-26T19:05:16.313Z,1.30
2022-11-26T19:07:43.118Z,1.20
2022-11-26T19:10:10.736Z,1.20
2022-11-26T19:12:37.507Z,1.10
2022-11-26T19:15:04.750Z,1.10
2022-11-26T19:17:31.533Z,1.10
2022-11-26T19:19:58.259Z,1.00
2022-11-26T19:22:24.967Z,1.00
2022-11-26T19:24:52.887Z,1.00
2022-11-26T19:27:19.644Z,1.00
2022-11-26T19:29:46.471Z,0.90
2022-11-26T19:32:13.185Z,0.90
2022-11-26T19:34:40.187Z,0.90
2022-11-26T19:37:07.045Z,0.80
2022-11-26T19:39:34.090Z,0.80
2022-11-26T19:42:01.197Z,0.80
2022-11-26T19:44:27.923Z,0.70
2022-11-26T19:46:54.652Z,0.70
2022-11-26T19:49:21.467Z,0.80
2022-11-26T19:51:48.204Z,0.80
2022-11-26T19:54:15.028Z,0.70
2022-11-26T19:56:43.020Z,0.70
2022-11-26T19:59:09.883Z,0.70
2022-11-26T20:01:36.723Z,0.70
2022-11-26T20:04:06.123Z,0.70
2022-11-26T20:06:34.609Z,0.70
2022-11-26T20:09:02.629Z,0.70
2022-11-26T20:11:29.508Z,0.60
2022-11-26T20:13:58.106Z,0.60
2022-11-26T20:16:29.381Z,0.60
2022-11-26T20:18:56.884Z,0.60
2022-11-26T20:21:26.414Z,0.60
2022-11-26T20:23:57.001Z,0.50
2022-11-26T20:26:30.035Z,0.50
2022-11-26T20:29:00.667Z,0.50
2022-11-26T20:31:28.188Z,0.40
2022-11-26T20:33:55.291Z,0.40
2022-11-26T20:36:23.425Z,0.40
2022-11-26T20:38:54.830Z,0.40
2022-11-26T20:41:22.823Z,0.40
2022-11-26T20:43:54.908Z,0.40
2022-11-26T20:46:25.553Z,0.40
2022-11-26T20:48:52.895Z,0.40
2022-11-26T20:51:22.439Z,0.40
2022-11-26T20:53:51.106Z,0.40
2022-11-26T20:56:22.120Z,0.30
2022-11-26T20:58:50.341Z,0.30
2022-11-26T21:01:24.720Z,0.30
2022-11-26T21:03:52.707Z,0.30
2022-11-26T21:06:27.675Z,0.20
2022-11-26T21:09:01.778Z,0.20
2022-11-26T21:11:29.396Z,0.20
2022-11-26T21:13:58.193Z,0.10
2022-11-26T21:16:25.029Z,0.10
2022-11-26T21:18:56.157Z,0.10
2022-11-26T21:21:24.345Z,0.10
2022-11-26T21:23:51.150Z,0.10
2022-11-26T21:26:23.609Z,0.10
2022-11-26T21:28:58.985Z,0.00
2022-11-26T21:31:27.828Z,0.00
2022-11-26T21:33:57.277Z,0.00
2022-11-26T21:36:25.173Z,0.00
2022-11-26T21:38:52.077Z,-0.10
2022-11-26T21:41:20.068Z,-0.10
2022-11-26T21:43:48.110Z,-0.10
2022-11-26T21:46:24.023Z,-0.20
2022-11-26T21:48:54.856Z,-0.20
2022-11-26T21:51:25.272Z,-0.20
2022-11-26T21:53:54.286Z,-0.20
2022-11-26T21:56:23.404Z,-0.30
2022-11-26T21:58:50.645Z,-0.30
2022-11-26T22:01:34.070Z,-0.30
2022-11-26T22:04:17.923Z,-0.30
2022-11-26T22:06:46.990Z,-0.30
2022-11-26T22:09:15.859Z,-0.30
2022-11-26T22:11:44.436Z,-0.40
2022-11-26T22:14:14.242Z,-0.40
2022-11-26T22:16:41.104Z,-0.40
2022-11-26T22:19:09.655Z,-0.40
2022-11-26T22:21:39.790Z,-0.40
2022-11-26T22:24:11.353Z,-0.40
2022-11-26T22:26:38.114Z,-0.40
2022-11-26T22:29:05.576Z,-0.40
2022-11-26T22:31:35.146Z,-0.40
2022-11-26T22:34:22.092Z,-0.50
2022-11-26T22:36:49.254Z,-0.50
2022-11-26T22:39:18.381Z,-0.50
2022-11-26T22:41:46.857Z,-0.50
2022-11-26T22:44:15.597Z,-0.60
2022-11-26T22:46:42.863Z,-0.60
2022-11-26T22:49:15.535Z,-0.60
2022-11-26T22:51:42.561Z,-0.70
2022-11-26T22:54:12.233Z,-0.70
2022-11-26T22:56:39.379Z,-0.70
2022-11-26T22:59:07.878Z,-0.80
2022-11-26T23:01:36.267Z,-0.80
2022-11-26T23:04:06.083Z,-0.90
2022-11-26T23:06:35.036Z,-0.90
2022-11-26T23:09:03.446Z,-1.00
2022-11-26T23:11:33.949Z,-1.00
2022-11-26T23:14:07.108Z,-1.10
2022-11-26T23:16:34.659Z,-1.10
2022-11-26T23:19:01.800Z,-1.10
2022-11-26T23:21:31.386Z,-1.10
2022-11-26T23:23:58.489Z,-1.10
2022-11-26T23:26:28.648Z,-1.10
2022-11-26T23:29:00.315Z,-1.10
2022-11-26T23:31:35.976Z,-1.20
2022-11-26T23:34:04.078Z,-1.20
2022-11-26T23:36:31.395Z,-1.20
2022-11-26T23:39:00.524Z,-1.20
2022-11-26T23:41:27.753Z,-1.20
2022-11-26T23:43:54.700Z,-1.20
2022-11-26T23:46:24.111Z,-1.30
2022-11-26T23:48:51.822Z,-1.40
2022-11-26T23:51:25.155Z,-1.40
2022-11-26T23:53:54.065Z,-1.40
2022-11-26T23:56:23.547Z,-1.40
2022-11-26T23:58:52.023Z,-1.40
